sensor_id;sensor_type;location;lat;lon;timestamp;P1;durP1;ratioP1;P2;durP2;ratioP2
80404;SDS011;69733;48.744;9.176;2023-04-29T00:00:45;22.37;;;3.20;;
80404;SDS011;69733;48.744;9.176;2023-04-29T00:03:10;10.15;;;3.05;;
80404;SDS011;69733;48.744;9.176;2023-04-29T00:05:36;4.40;;;2.45;;
80404;SDS011;69733;48.744;9.176;2023-04-29T00:08:01;3.80;;;2.20;;
80404;SDS011;69733;48.744;9.176;2023-04-29T00:10:28;57.45;;;7.15;;
80404;SDS011;69733;48.744;9.176;2023-04-29T00:12:54;3.95;;;2.88;;
80404;SDS011;69733;48.744;9.176;2023-04-29T00:15:19;3.63;;;2.30;;
80404;SDS011;69733;48.744;9.176;2023-04-29T00:17:45;4.60;;;2.63;;
80404;SDS011;69733;48.744;9.176;2023-04-29T00:20:11;3.53;;;2.25;;
80404;SDS011;69733;48.744;9.176;2023-04-29T00:22:36;6.38;;;2.45;;
80404;SDS011;69733;48.744;9.176;2023-04-29T00:25:03;3.60;;;2.13;;
80404;SDS011;69733;48.744;9.176;2023-04-29T00:27:29;5.03;;;2.80;;
80404;SDS011;69733;48.744;9.176;2023-04-29T00:29:54;5.82;;;2.35;;
80404;SDS011;69733;48.744;9.176;2023-04-29T00:32:21;3.08;;;1.77;;
80404;SDS011;69733;48.744;9.176;2023-04-29T00:34:46;3.55;;;2.15;;
80404;SDS011;69733;48.744;9.176;2023-04-29T00:37:12;3.80;;;2.08;;
80404;SDS011;69733;48.744;9.176;2023-04-29T00:39:37;3.42;;;2.15;;
80404;SDS011;69733;48.744;9.176;2023-04-29T00:42:03;4.32;;;1.80;;
80404;SDS011;69733;48.744;9.176;2023-04-29T00:44:28;3.30;;;2.17;;
80404;SDS011;69733;48.744;9.176;2023-04-29T00:46:54;3.28;;;2.15;;
80404;SDS011;69733;48.744;9.176;2023-04-29T00:49:19;3.40;;;2.08;;
80404;SDS011;69733;48.744;9.176;2023-04-29T00:51:45;4.53;;;2.00;;
80404;SDS011;69733;48.744;9.176;2023-04-29T00:54:11;5.13;;;2.10;;
80404;SDS011;69733;48.744;9.176;2023-04-29T00:56:38;5.10;;;2.40;;
80404;SDS011;69733;48.744;9.176;2023-04-29T00:59:08;3.00;;;2.30;;
80404;SDS011;69733;48.744;9.176;2023-04-29T01:01:34;3.97;;;2.20;;
80404;SDS011;69733;48.744;9.176;2023-04-29T01:04:00;3.25;;;2.00;;
80404;SDS011;69733;48.744;9.176;2023-04-29T01:06:46;3.47;;;2.20;;
80404;SDS011;69733;48.744;9.176;2023-04-29T01:12:20;4.00;;;1.83;;
80404;SDS011;69733;48.744;9.176;2023-04-29T01:15:04;3.70;;;2.58;;
80404;SDS011;69733;48.744;9.176;2023-04-29T01:17:43;3.35;;;2.38;;
80404;SDS011;69733;48.744;9.176;2023-04-29T01:20:12;3.58;;;2.17;;
80404;SDS011;69733;48.744;9.176;2023-04-29T01:22:39;4.10;;;2.30;;
80404;SDS011;69733;48.744;9.176;2023-04-29T01:25:05;3.70;;;2.28;;
80404;SDS011;69733;48.744;9.176;2023-04-29T01:33:21;27.55;;;3.92;;
80404;SDS011;69733;48.744;9.176;2023-04-29T01:38:52;5.05;;;2.30;;
80404;SDS011;69733;48.744;9.176;2023-04-29T01:41:28;4.85;;;1.80;;
80404;SDS011;69733;48.744;9.176;2023-04-29T01:44:00;3.55;;;2.10;;
80404;SDS011;69733;48.744;9.176;2023-04-29T01:46:28;5.47;;;2.63;;
80404;SDS011;69733;48.744;9.176;2023-04-29T01:48:55;4.28;;;1.83;;
80404;SDS011;69733;48.744;9.176;2023-04-29T01:51:20;5.87;;;2.07;;
80404;SDS011;69733;48.744;9.176;2023-04-29T01:53:45;3.30;;;2.10;;
80404;SDS011;69733;48.744;9.176;2023-04-29T01:56:11;5.65;;;2.10;;
80404;SDS011;69733;48.744;9.176;2023-04-29T01:58:36;3.80;;;1.80;;
80404;SDS011;69733;48.744;9.176;2023-04-29T02:01:04;5.17;;;2.10;;
80404;SDS011;69733;48.744;9.176;2023-04-29T02:03:35;3.38;;;2.15;;
80404;SDS011;69733;48.744;9.176;2023-04-29T02:06:07;3.22;;;1.80;;
80404;SDS011;69733;48.744;9.176;2023-04-29T02:08:32;3.22;;;2.08;;
80404;SDS011;69733;48.744;9.176;2023-04-29T02:10:58;3.75;;;2.40;;
80404;SDS011;69733;48.744;9.176;2023-04-29T02:13:24;3.72;;;2.00;;
80404;SDS011;69733;48.744;9.176;2023-04-29T02:15:49;4.03;;;2.20;;
80404;SDS011;69733;48.744;9.176;2023-04-29T02:18:15;3.97;;;2.30;;
80404;SDS011;69733;48.744;9.176;2023-04-29T02:20:40;3.65;;;2.35;;
80404;SDS011;69733;48.744;9.176;2023-04-29T02:23:06;2.95;;;1.92;;
80404;SDS011;69733;48.744;9.176;2023-04-29T02:25:31;3.43;;;2.27;;
80404;SDS011;69733;48.744;9.176;2023-04-29T02:27:57;3.40;;;2.27;;
80404;SDS011;69733;48.744;9.176;2023-04-29T02:30:22;3.87;;;2.13;;
80404;SDS011;69733;48.744;9.176;2023-04-29T02:32:47;3.65;;;2.13;;
80404;SDS011;69733;48.744;9.176;2023-04-29T02:35:13;3.87;;;2.30;;
80404;SDS011;69733;48.744;9.176;2023-04-29T02:37:38;4.13;;;2.20;;
80404;SDS011;69733;48.744;9.176;2023-04-29T02:40:03;3.83;;;2.28;;
80404;SDS011;69733;48.744;9.176;2023-04-29T02:42:30;3.72;;;2.10;;
80404;SDS011;69733;48.744;9.176;2023-04-29T02:44:55;3.17;;;2.00;;
80404;SDS011;69733;48.744;9.176;2023-04-29T02:47:20;3.17;;;2.20;;
80404;SDS011;69733;48.744;9.176;2023-04-29T02:49:46;3.17;;;1.98;;
80404;SDS011;69733;48.744;9.176;2023-04-29T02:52:11;4.03;;;2.33;;
80404;SDS011;69733;48.744;9.176;2023-04-29T02:54:37;4.20;;;2.17;;
80404;SDS011;69733;48.744;9.176;2023-04-29T02:57:02;3.30;;;1.93;;
80404;SDS011;69733;48.744;9.176;2023-04-29T02:59:28;41.00;;;4.93;;
80404;SDS011;69733;48.744;9.176;2023-04-29T03:01:53;3.30;;;2.10;;
80404;SDS011;69733;48.744;9.176;2023-04-29T03:04:19;3.60;;;1.98;;
80404;SDS011;69733;48.744;9.176;2023-04-29T03:06:44;5.50;;;2.00;;
80404;SDS011;69733;48.744;9.176;2023-04-29T03:09:10;4.22;;;2.35;;
80404;SDS011;69733;48.744;9.176;2023-04-29T03:11:36;4.03;;;1.95;;
80404;SDS011;69733;48.744;9.176;2023-04-29T03:14:02;3.75;;;1.92;;
80404;SDS011;69733;48.744;9.176;2023-04-29T03:16:27;3.92;;;2.33;;
80404;SDS011;69733;48.744;9.176;2023-04-29T03:18:53;3.10;;;2.05;;
80404;SDS011;69733;48.744;9.176;2023-04-29T03:21:18;5.30;;;2.50;;
80404;SDS011;69733;48.744;9.176;2023-04-29T03:23:43;3.13;;;1.95;;
80404;SDS011;69733;48.744;9.176;2023-04-29T03:26:09;3.90;;;2.30;;
80404;SDS011;69733;48.744;9.176;2023-04-29T03:28:34;4.10;;;2.50;;
80404;SDS011;69733;48.744;9.176;2023-04-29T03:30:59;5.05;;;2.50;;
80404;SDS011;69733;48.744;9.176;2023-04-29T03:33:25;4.20;;;2.55;;
80404;SDS011;69733;48.744;9.176;2023-04-29T03:35:51;3.77;;;2.40;;
80404;SDS011;69733;48.744;9.176;2023-04-29T03:38:16;4.78;;;2.70;;
80404;SDS011;69733;48.744;9.176;2023-04-29T03:40:41;5.72;;;2.45;;
80404;SDS011;69733;48.744;9.176;2023-04-29T03:43:07;5.27;;;2.70;;
80404;SDS011;69733;48.744;9.176;2023-04-29T03:45:33;4.32;;;2.83;;
80404;SDS011;69733;48.744;9.176;2023-04-29T03:47:58;4.18;;;2.47;;
80404;SDS011;69733;48.744;9.176;2023-04-29T03:50:24;4.20;;;2.78;;
80404;SDS011;69733;48.744;9.176;2023-04-29T03:52:50;4.72;;;3.17;;
80404;SDS011;69733;48.744;9.176;2023-04-29T03:55:15;7.28;;;2.60;;
80404;SDS011;69733;48.744;9.176;2023-04-29T03:57:41;4.90;;;2.78;;
80404;SDS011;69733;48.744;9.176;2023-04-29T04:00:06;4.05;;;2.67;;
80404;SDS011;69733;48.744;9.176;2023-04-29T04:02:33;4.72;;;2.80;;
80404;SDS011;69733;48.744;9.176;2023-04-29T04:04:59;3.97;;;2.42;;
80404;SDS011;69733;48.744;9.176;2023-04-29T04:07:24;5.18;;;3.13;;
80404;SDS011;69733;48.744;9.176;2023-04-29T04:09:49;4.73;;;3.13;;
80404;SDS011;69733;48.744;9.176;2023-04-29T04:12:15;5.43;;;3.10;;
80404;SDS011;69733;48.744;9.176;2023-04-29T04:14:40;4.35;;;2.63;;
80404;SDS011;69733;48.744;9.176;2023-04-29T04:17:06;4.10;;;2.60;;
80404;SDS011;69733;48.744;9.176;2023-04-29T04:19:31;6.00;;;3.30;;
80404;SDS011;69733;48.744;9.176;2023-04-29T04:21:57;4.88;;;2.75;;
80404;SDS011;69733;48.744;9.176;2023-04-29T04:24:23;4.03;;;2.85;;
80404;SDS011;69733;48.744;9.176;2023-04-29T04:26:48;7.47;;;3.50;;
80404;SDS011;69733;48.744;9.176;2023-04-29T04:29:13;5.40;;;3.00;;
80404;SDS011;69733;48.744;9.176;2023-04-29T04:31:38;5.50;;;3.35;;
80404;SDS011;69733;48.744;9.176;2023-04-29T04:34:04;6.13;;;3.33;;
80404;SDS011;69733;48.744;9.176;2023-04-29T04:36:29;5.97;;;3.40;;
80404;SDS011;69733;48.744;9.176;2023-04-29T04:38:56;4.68;;;3.08;;
80404;SDS011;69733;48.744;9.176;2023-04-29T04:41:22;5.35;;;2.92;;
80404;SDS011;69733;48.744;9.176;2023-04-29T04:43:50;4.75;;;3.25;;
80404;SDS011;69733;48.744;9.176;2023-04-29T04:46:15;5.30;;;3.60;;
80404;SDS011;69733;48.744;9.176;2023-04-29T04:48:41;5.20;;;3.17;;
80404;SDS011;69733;48.744;9.176;2023-04-29T04:51:07;5.25;;;3.50;;
80404;SDS011;69733;48.744;9.176;2023-04-29T04:53:34;6.30;;;3.72;;
80404;SDS011;69733;48.744;9.176;2023-04-29T04:56:00;6.72;;;3.63;;
80404;SDS011;69733;48.744;9.176;2023-04-29T04:58:26;6.30;;;3.67;;
80404;SDS011;69733;48.744;9.176;2023-04-29T05:00:51;5.43;;;3.90;;
80404;SDS011;69733;48.744;9.176;2023-04-29T05:03:16;7.17;;;4.63;;
80404;SDS011;69733;48.744;9.176;2023-04-29T05:05:44;9.30;;;6.20;;
80404;SDS011;69733;48.744;9.176;2023-04-29T05:08:10;8.33;;;5.20;;
80404;SDS011;69733;48.744;9.176;2023-04-29T05:10:35;6.90;;;4.20;;
80404;SDS011;69733;48.744;9.176;2023-04-29T05:13:01;6.78;;;3.90;;
80404;SDS011;69733;48.744;9.176;2023-04-29T05:15:26;6.45;;;3.90;;
80404;SDS011;69733;48.744;9.176;2023-04-29T05:17:52;4.68;;;3.47;;
80404;SDS011;69733;48.744;9.176;2023-04-29T05:20:17;3.42;;;2.67;;
80404;SDS011;69733;48.744;9.176;2023-04-29T05:22:44;4.38;;;3.00;;
80404;SDS011;69733;48.744;9.176;2023-04-29T05:25:09;3.35;;;2.50;;
80404;SDS011;69733;48.744;9.176;2023-04-29T05:27:35;4.43;;;2.47;;
80404;SDS011;69733;48.744;9.176;2023-04-29T05:30:04;2.85;;;2.20;;
80404;SDS011;69733;48.744;9.176;2023-04-29T05:32:30;4.88;;;2.58;;
80404;SDS011;69733;48.744;9.176;2023-04-29T05:34:55;5.90;;;2.00;;
80404;SDS011;69733;48.744;9.176;2023-04-29T05:37:20;3.20;;;2.23;;
80404;SDS011;69733;48.744;9.176;2023-04-29T05:39:46;3.97;;;2.50;;
80404;SDS011;69733;48.744;9.176;2023-04-29T05:42:11;5.23;;;3.00;;
80404;SDS011;69733;48.744;9.176;2023-04-29T05:44:36;4.97;;;2.80;;
80404;SDS011;69733;48.744;9.176;2023-04-29T05:47:04;5.78;;;3.85;;
80404;SDS011;69733;48.744;9.176;2023-04-29T05:49:30;4.40;;;3.20;;
80404;SDS011;69733;48.744;9.176;2023-04-29T05:51:58;4.53;;;3.35;;
80404;SDS011;69733;48.744;9.176;2023-04-29T05:54:28;4.32;;;3.22;;
80404;SDS011;69733;48.744;9.176;2023-04-29T05:56:53;4.37;;;3.30;;
80404;SDS011;69733;48.744;9.176;2023-04-29T05:59:18;3.97;;;2.90;;
80404;SDS011;69733;48.744;9.176;2023-04-29T06:01:46;4.68;;;4.00;;
80404;SDS011;69733;48.744;9.176;2023-04-29T06:04:11;4.27;;;3.23;;
80404;SDS011;69733;48.744;9.176;2023-04-29T06:06:37;4.50;;;3.57;;
80404;SDS011;69733;48.744;9.176;2023-04-29T06:09:02;4.68;;;3.83;;
80404;SDS011;69733;48.744;9.176;2023-04-29T06:11:28;3.78;;;3.00;;
80404;SDS011;69733;48.744;9.176;2023-04-29T06:13:53;5.93;;;3.80;;
80404;SDS011;69733;48.744;9.176;2023-04-29T06:16:19;4.90;;;3.35;;
80404;SDS011;69733;48.744;9.176;2023-04-29T06:18:50;4.80;;;3.45;;
80404;SDS011;69733;48.744;9.176;2023-04-29T06:21:16;4.38;;;3.78;;
80404;SDS011;69733;48.744;9.176;2023-04-29T06:23:41;4.10;;;3.10;;
80404;SDS011;69733;48.744;9.176;2023-04-29T06:26:06;3.80;;;3.40;;
80404;SDS011;69733;48.744;9.176;2023-04-29T06:28:34;5.10;;;3.83;;
80404;SDS011;69733;48.744;9.176;2023-04-29T06:31:00;4.95;;;3.95;;
80404;SDS011;69733;48.744;9.176;2023-04-29T06:33:51;5.25;;;3.90;;
80404;SDS011;69733;48.744;9.176;2023-04-29T06:36:16;5.85;;;3.70;;
80404;SDS011;69733;48.744;9.176;2023-04-29T06:38:42;5.15;;;4.10;;
80404;SDS011;69733;48.744;9.176;2023-04-29T06:41:10;4.30;;;3.15;;
80404;SDS011;69733;48.744;9.176;2023-04-29T06:43:38;4.93;;;3.90;;
80404;SDS011;69733;48.744;9.176;2023-04-29T06:46:04;4.90;;;3.78;;
80404;SDS011;69733;48.744;9.176;2023-04-29T06:48:30;5.03;;;3.87;;
80404;SDS011;69733;48.744;9.176;2023-04-29T06:50:56;4.47;;;3.38;;
80404;SDS011;69733;48.744;9.176;2023-04-29T06:53:22;4.88;;;3.53;;
80404;SDS011;69733;48.744;9.176;2023-04-29T06:55:48;4.53;;;3.47;;
80404;SDS011;69733;48.744;9.176;2023-04-29T06:58:15;4.55;;;3.25;;
80404;SDS011;69733;48.744;9.176;2023-04-29T07:00:44;5.40;;;3.35;;
80404;SDS011;69733;48.744;9.176;2023-04-29T07:03:11;6.45;;;4.07;;
80404;SDS011;69733;48.744;9.176;2023-04-29T07:05:40;4.72;;;3.83;;
80404;SDS011;69733;48.744;9.176;2023-04-29T07:08:06;4.88;;;3.88;;
80404;SDS011;69733;48.744;9.176;2023-04-29T07:10:35;5.20;;;3.70;;
80404;SDS011;69733;48.744;9.176;2023-04-29T07:13:00;4.25;;;3.63;;
80404;SDS011;69733;48.744;9.176;2023-04-29T07:15:26;5.20;;;3.17;;
80404;SDS011;69733;48.744;9.176;2023-04-29T07:17:52;3.72;;;2.60;;
80404;SDS011;69733;48.744;9.176;2023-04-29T07:20:17;3.58;;;2.38;;
80404;SDS011;69733;48.744;9.176;2023-04-29T07:22:43;3.30;;;2.42;;
80404;SDS011;69733;48.744;9.176;2023-04-29T07:25:08;4.55;;;2.75;;
80404;SDS011;69733;48.744;9.176;2023-04-29T07:27:35;2.95;;;2.17;;
80404;SDS011;69733;48.744;9.176;2023-04-29T07:30:00;2.90;;;2.33;;
80404;SDS011;69733;48.744;9.176;2023-04-29T07:32:26;2.53;;;1.98;;
80404;SDS011;69733;48.744;9.176;2023-04-29T07:34:51;2.70;;;2.22;;
80404;SDS011;69733;48.744;9.176;2023-04-29T07:37:17;2.97;;;1.77;;
80404;SDS011;69733;48.744;9.176;2023-04-29T07:39:43;2.33;;;1.60;;
80404;SDS011;69733;48.744;9.176;2023-04-29T07:42:08;2.60;;;1.63;;
80404;SDS011;69733;48.744;9.176;2023-04-29T07:44:34;2.85;;;1.90;;
80404;SDS011;69733;48.744;9.176;2023-04-29T07:47:00;3.78;;;1.35;;
80404;SDS011;69733;48.744;9.176;2023-04-29T07:49:25;4.07;;;1.90;;
80404;SDS011;69733;48.744;9.176;2023-04-29T07:51:51;2.45;;;1.52;;
80404;SDS011;69733;48.744;9.176;2023-04-29T07:54:16;3.22;;;1.95;;
80404;SDS011;69733;48.744;9.176;2023-04-29T07:56:43;3.25;;;2.00;;
80404;SDS011;69733;48.744;9.176;2023-04-29T07:59:08;2.63;;;1.60;;
80404;SDS011;69733;48.744;9.176;2023-04-29T08:01:34;2.50;;;1.60;;
80404;SDS011;69733;48.744;9.176;2023-04-29T08:03:59;2.20;;;1.70;;
80404;SDS011;69733;48.744;9.176;2023-04-29T08:06:24;3.78;;;1.80;;
80404;SDS011;69733;48.744;9.176;2023-04-29T08:08:50;2.13;;;1.60;;
80404;SDS011;69733;48.744;9.176;2023-04-29T08:11:18;2.47;;;1.77;;
80404;SDS011;69733;48.744;9.176;2023-04-29T08:13:44;2.38;;;1.80;;
80404;SDS011;69733;48.744;9.176;2023-04-29T08:16:10;2.25;;;1.48;;
80404;SDS011;69733;48.744;9.176;2023-04-29T08:18:37;3.53;;;2.40;;
80404;SDS011;69733;48.744;9.176;2023-04-29T08:21:02;2.60;;;1.70;;
80404;SDS011;69733;48.744;9.176;2023-04-29T08:23:28;2.08;;;1.50;;
80404;SDS011;69733;48.744;9.176;2023-04-29T08:25:53;2.15;;;1.23;;
80404;SDS011;69733;48.744;9.176;2023-04-29T08:28:20;2.72;;;1.63;;
80404;SDS011;69733;48.744;9.176;2023-04-29T08:30:46;2.30;;;1.50;;
80404;SDS011;69733;48.744;9.176;2023-04-29T08:33:11;2.38;;;1.60;;
80404;SDS011;69733;48.744;9.176;2023-04-29T08:35:37;3.10;;;1.60;;
80404;SDS011;69733;48.744;9.176;2023-04-29T08:38:03;1.95;;;1.30;;
80404;SDS011;69733;48.744;9.176;2023-04-29T08:40:29;1.90;;;1.30;;
80404;SDS011;69733;48.744;9.176;2023-04-29T08:42:55;2.70;;;1.33;;
80404;SDS011;69733;48.744;9.176;2023-04-29T08:45:22;2.00;;;1.50;;
80404;SDS011;69733;48.744;9.176;2023-04-29T08:47:49;2.30;;;1.30;;
80404;SDS011;69733;48.744;9.176;2023-04-29T08:50:15;2.50;;;1.40;;
80404;SDS011;69733;48.744;9.176;2023-04-29T08:52:42;2.90;;;1.45;;
80404;SDS011;69733;48.744;9.176;2023-04-29T08:55:07;2.85;;;1.48;;
80404;SDS011;69733;48.744;9.176;2023-04-29T08:57:34;2.67;;;1.70;;
80404;SDS011;69733;48.744;9.176;2023-04-29T09:00:04;2.78;;;1.80;;
80404;SDS011;69733;48.744;9.176;2023-04-29T09:02:31;2.60;;;1.80;;
80404;SDS011;69733;48.744;9.176;2023-04-29T09:07:32;2.55;;;2.00;;
80404;SDS011;69733;48.744;9.176;2023-04-29T09:09:58;2.78;;;2.17;;
80404;SDS011;69733;48.744;9.176;2023-04-29T09:12:26;3.28;;;2.08;;
80404;SDS011;69733;48.744;9.176;2023-04-29T09:14:51;3.10;;;2.50;;
80404;SDS011;69733;48.744;9.176;2023-04-29T09:17:16;3.45;;;2.60;;
80404;SDS011;69733;48.744;9.176;2023-04-29T09:19:42;4.55;;;2.50;;
80404;SDS011;69733;48.744;9.176;2023-04-29T09:22:08;3.35;;;2.70;;
80404;SDS011;69733;48.744;9.176;2023-04-29T09:24:34;3.88;;;3.05;;
80404;SDS011;69733;48.744;9.176;2023-04-29T09:26:59;3.22;;;2.20;;
80404;SDS011;69733;48.744;9.176;2023-04-29T09:29:25;3.65;;;2.53;;
80404;SDS011;69733;48.744;9.176;2023-04-29T09:31:51;3.42;;;2.72;;
80404;SDS011;69733;48.744;9.176;2023-04-29T09:34:31;3.80;;;3.13;;
80404;SDS011;69733;48.744;9.176;2023-04-29T09:36:57;5.45;;;2.58;;
80404;SDS011;69733;48.744;9.176;2023-04-29T09:39:23;3.70;;;2.60;;
80404;SDS011;69733;48.744;9.176;2023-04-29T09:44:20;3.10;;;2.80;;
80404;SDS011;69733;48.744;9.176;2023-04-29T09:47:07;3.35;;;2.85;;
80404;SDS011;69733;48.744;9.176;2023-04-29T09:49:34;4.90;;;3.05;;
80404;SDS011;69733;48.744;9.176;2023-04-29T09:52:03;2.83;;;1.92;;
80404;SDS011;69733;48.744;9.176;2023-04-29T09:54:30;3.30;;;2.05;;
80404;SDS011;69733;48.744;9.176;2023-04-29T09:56:58;3.53;;;2.38;;
80404;SDS011;69733;48.744;9.176;2023-04-29T09:59:25;4.20;;;2.45;;
80404;SDS011;69733;48.744;9.176;2023-04-29T10:01:51;4.15;;;1.80;;
80404;SDS011;69733;48.744;9.176;2023-04-29T10:04:19;3.15;;;2.00;;
80404;SDS011;69733;48.744;9.176;2023-04-29T10:07:09;2.88;;;2.38;;
80404;SDS011;69733;48.744;9.176;2023-04-29T10:09:38;2.60;;;1.92;;
80404;SDS011;69733;48.744;9.176;2023-04-29T10:12:04;3.40;;;1.92;;
80404;SDS011;69733;48.744;9.176;2023-04-29T10:14:31;3.72;;;2.20;;
80404;SDS011;69733;48.744;9.176;2023-04-29T10:17:15;4.22;;;2.75;;
80404;SDS011;69733;48.744;9.176;2023-04-29T10:19:51;3.85;;;1.98;;
80404;SDS011;69733;48.744;9.176;2023-04-29T10:22:26;3.10;;;2.30;;
80404;SDS011;69733;48.744;9.176;2023-04-29T10:24:57;3.05;;;1.70;;
80404;SDS011;69733;48.744;9.176;2023-04-29T10:27:25;3.30;;;1.73;;
80404;SDS011;69733;48.744;9.176;2023-04-29T10:29:52;3.88;;;1.60;;
80404;SDS011;69733;48.744;9.176;2023-04-29T10:32:20;2.58;;;1.80;;
80404;SDS011;69733;48.744;9.176;2023-04-29T10:34:46;3.70;;;1.90;;
80404;SDS011;69733;48.744;9.176;2023-04-29T10:37:13;3.22;;;1.90;;
80404;SDS011;69733;48.744;9.176;2023-04-29T10:39:52;3.20;;;1.67;;
80404;SDS011;69733;48.744;9.176;2023-04-29T10:42:46;3.00;;;1.98;;
80404;SDS011;69733;48.744;9.176;2023-04-29T10:45:24;2.67;;;1.48;;
80404;SDS011;69733;48.744;9.176;2023-04-29T10:53:15;4.35;;;2.00;;
80404;SDS011;69733;48.744;9.176;2023-04-29T10:55:55;3.00;;;2.70;;
80404;SDS011;69733;48.744;9.176;2023-04-29T10:58:40;2.90;;;2.08;;
80404;SDS011;69733;48.744;9.176;2023-04-29T11:01:14;3.55;;;2.40;;
80404;SDS011;69733;48.744;9.176;2023-04-29T11:06:22;3.00;;;1.90;;
80404;SDS011;69733;48.744;9.176;2023-04-29T11:09:06;3.15;;;2.05;;
80404;SDS011;69733;48.744;9.176;2023-04-29T11:14:31;2.72;;;1.85;;
80404;SDS011;69733;48.744;9.176;2023-04-29T11:17:01;2.45;;;1.98;;
80404;SDS011;69733;48.744;9.176;2023-04-29T11:19:35;2.97;;;1.70;;
80404;SDS011;69733;48.744;9.176;2023-04-29T11:22:09;2.38;;;1.85;;
80404;SDS011;69733;48.744;9.176;2023-04-29T11:24:36;4.00;;;1.88;;
80404;SDS011;69733;48.744;9.176;2023-04-29T11:27:12;3.28;;;1.70;;
80404;SDS011;69733;48.744;9.176;2023-04-29T11:29:39;2.72;;;1.60;;
80404;SDS011;69733;48.744;9.176;2023-04-29T11:32:05;1.90;;;1.30;;
80404;SDS011;69733;48.744;9.176;2023-04-29T11:34:31;4.03;;;1.95;;
80404;SDS011;69733;48.744;9.176;2023-04-29T11:36:57;2.50;;;1.40;;
80404;SDS011;69733;48.744;9.176;2023-04-29T11:39:22;3.70;;;1.90;;
80404;SDS011;69733;48.744;9.176;2023-04-29T11:41:48;2.55;;;1.83;;
80404;SDS011;69733;48.744;9.176;2023-04-29T11:44:13;2.40;;;1.42;;
80404;SDS011;69733;48.744;9.176;2023-04-29T11:46:38;3.20;;;1.50;;
80404;SDS011;69733;48.744;9.176;2023-04-29T11:49:04;3.22;;;1.63;;
80404;SDS011;69733;48.744;9.176;2023-04-29T11:51:32;2.20;;;1.40;;
80404;SDS011;69733;48.744;9.176;2023-04-29T11:53:58;2.60;;;1.20;;
80404;SDS011;69733;48.744;9.176;2023-04-29T11:56:23;2.20;;;1.35;;
80404;SDS011;69733;48.744;9.176;2023-04-29T11:58:55;2.33;;;1.48;;
80404;SDS011;69733;48.744;9.176;2023-04-29T12:01:22;2.88;;;1.30;;
80404;SDS011;69733;48.744;9.176;2023-04-29T12:03:47;3.00;;;1.73;;
80404;SDS011;69733;48.744;9.176;2023-04-29T12:06:13;3.75;;;2.25;;
80404;SDS011;69733;48.744;9.176;2023-04-29T12:08:39;3.85;;;2.47;;
80404;SDS011;69733;48.744;9.176;2023-04-29T12:11:05;3.50;;;2.58;;
80404;SDS011;69733;48.744;9.176;2023-04-29T12:13:31;3.90;;;2.15;;
80404;SDS011;69733;48.744;9.176;2023-04-29T12:16:20;3.72;;;2.30;;
80404;SDS011;69733;48.744;9.176;2023-04-29T12:18:48;4.93;;;3.03;;
80404;SDS011;69733;48.744;9.176;2023-04-29T12:21:14;4.55;;;3.03;;
80404;SDS011;69733;48.744;9.176;2023-04-29T12:23:40;3.88;;;2.85;;
80404;SDS011;69733;48.744;9.176;2023-04-29T12:26:05;4.73;;;2.67;;
80404;SDS011;69733;48.744;9.176;2023-04-29T12:28:30;4.87;;;3.33;;
80404;SDS011;69733;48.744;9.176;2023-04-29T12:30:57;5.15;;;2.83;;
80404;SDS011;69733;48.744;9.176;2023-04-29T12:33:23;4.70;;;2.50;;
80404;SDS011;69733;48.744;9.176;2023-04-29T12:35:51;4.85;;;2.92;;
80404;SDS011;69733;48.744;9.176;2023-04-29T12:38:21;4.65;;;3.00;;
80404;SDS011;69733;48.744;9.176;2023-04-29T12:40:47;4.63;;;3.03;;
80404;SDS011;69733;48.744;9.176;2023-04-29T12:43:24;6.03;;;3.65;;
80404;SDS011;69733;48.744;9.176;2023-04-29T12:45:51;5.78;;;4.13;;
80404;SDS011;69733;48.744;9.176;2023-04-29T12:48:19;6.70;;;4.13;;
80404;SDS011;69733;48.744;9.176;2023-04-29T12:50:44;6.07;;;3.65;;
80404;SDS011;69733;48.744;9.176;2023-04-29T12:53:18;5.18;;;3.40;;
80404;SDS011;69733;48.744;9.176;2023-04-29T12:55:43;4.45;;;3.42;;
80404;SDS011;69733;48.744;9.176;2023-04-29T12:58:08;5.38;;;3.53;;
80404;SDS011;69733;48.744;9.176;2023-04-29T13:00:34;6.45;;;3.40;;
80404;SDS011;69733;48.744;9.176;2023-04-29T13:03:01;5.20;;;3.55;;
80404;SDS011;69733;48.744;9.176;2023-04-29T13:05:26;6.07;;;3.53;;
80404;SDS011;69733;48.744;9.176;2023-04-29T13:07:51;4.23;;;3.20;;
80404;SDS011;69733;48.744;9.176;2023-04-29T13:10:17;5.30;;;3.40;;
80404;SDS011;69733;48.744;9.176;2023-04-29T13:12:42;6.35;;;3.83;;
80404;SDS011;69733;48.744;9.176;2023-04-29T13:15:07;5.80;;;3.77;;
80404;SDS011;69733;48.744;9.176;2023-04-29T13:17:34;7.15;;;3.55;;
80404;SDS011;69733;48.744;9.176;2023-04-29T13:20:01;6.47;;;3.00;;
80404;SDS011;69733;48.744;9.176;2023-04-29T13:22:27;6.63;;;3.95;;
80404;SDS011;69733;48.744;9.176;2023-04-29T13:24:53;6.60;;;4.07;;
80404;SDS011;69733;48.744;9.176;2023-04-29T13:27:18;7.03;;;3.80;;
80404;SDS011;69733;48.744;9.176;2023-04-29T13:29:43;5.83;;;3.93;;
80404;SDS011;69733;48.744;9.176;2023-04-29T13:32:09;6.28;;;3.67;;
80404;SDS011;69733;48.744;9.176;2023-04-29T13:34:37;6.50;;;3.80;;
80404;SDS011;69733;48.744;9.176;2023-04-29T13:37:07;6.20;;;3.95;;
80404;SDS011;69733;48.744;9.176;2023-04-29T13:39:32;6.75;;;4.43;;
80404;SDS011;69733;48.744;9.176;2023-04-29T13:41:58;7.55;;;4.75;;
80404;SDS011;69733;48.744;9.176;2023-04-29T13:44:23;6.97;;;4.83;;
80404;SDS011;69733;48.744;9.176;2023-04-29T13:46:49;8.93;;;4.80;;
80404;SDS011;69733;48.744;9.176;2023-04-29T13:49:15;7.38;;;4.75;;
80404;SDS011;69733;48.744;9.176;2023-04-29T13:51:41;6.85;;;4.93;;
80404;SDS011;69733;48.744;9.176;2023-04-29T13:54:06;6.43;;;4.50;;
80404;SDS011;69733;48.744;9.176;2023-04-29T13:56:31;7.60;;;4.53;;
80404;SDS011;69733;48.744;9.176;2023-04-29T13:58:57;6.30;;;3.50;;
80404;SDS011;69733;48.744;9.176;2023-04-29T14:01:22;6.10;;;4.67;;
80404;SDS011;69733;48.744;9.176;2023-04-29T14:03:47;7.68;;;5.30;;
80404;SDS011;69733;48.744;9.176;2023-04-29T14:06:13;11.27;;;5.27;;
80404;SDS011;69733;48.744;9.176;2023-04-29T14:08:38;7.53;;;4.57;;
80404;SDS011;69733;48.744;9.176;2023-04-29T14:11:04;6.33;;;3.57;;
80404;SDS011;69733;48.744;9.176;2023-04-29T14:13:29;7.68;;;4.10;;
80404;SDS011;69733;48.744;9.176;2023-04-29T14:15:55;8.30;;;4.75;;
80404;SDS011;69733;48.744;9.176;2023-04-29T14:18:20;7.25;;;4.60;;
80404;SDS011;69733;48.744;9.176;2023-04-29T14:20:46;7.28;;;4.68;;
80404;SDS011;69733;48.744;9.176;2023-04-29T14:23:11;7.17;;;4.93;;
80404;SDS011;69733;48.744;9.176;2023-04-29T14:25:36;8.00;;;5.33;;
80404;SDS011;69733;48.744;9.176;2023-04-29T14:28:02;5.90;;;4.43;;
80404;SDS011;69733;48.744;9.176;2023-04-29T14:30:28;7.57;;;4.85;;
80404;SDS011;69733;48.744;9.176;2023-04-29T14:32:53;7.82;;;5.10;;
80404;SDS011;69733;48.744;9.176;2023-04-29T14:35:18;9.30;;;5.73;;
80404;SDS011;69733;48.744;9.176;2023-04-29T14:37:44;7.57;;;5.10;;
80404;SDS011;69733;48.744;9.176;2023-04-29T14:40:10;7.93;;;5.40;;
80404;SDS011;69733;48.744;9.176;2023-04-29T14:42:35;8.23;;;5.20;;
80404;SDS011;69733;48.744;9.176;2023-04-29T14:45:01;8.80;;;5.85;;
80404;SDS011;69733;48.744;9.176;2023-04-29T14:47:26;9.15;;;5.22;;
80404;SDS011;69733;48.744;9.176;2023-04-29T14:49:52;8.02;;;4.95;;
80404;SDS011;69733;48.744;9.176;2023-04-29T14:52:18;7.55;;;4.82;;
80404;SDS011;69733;48.744;9.176;2023-04-29T14:54:43;8.97;;;5.50;;
80404;SDS011;69733;48.744;9.176;2023-04-29T14:57:08;9.60;;;5.22;;
80404;SDS011;69733;48.744;9.176;2023-04-29T14:59:34;7.95;;;5.35;;
80404;SDS011;69733;48.744;9.176;2023-04-29T15:02:00;8.55;;;5.57;;
80404;SDS011;69733;48.744;9.176;2023-04-29T15:04:25;7.47;;;4.65;;
80404;SDS011;69733;48.744;9.176;2023-04-29T15:06:51;7.60;;;5.25;;
80404;SDS011;69733;48.744;9.176;2023-04-29T15:09:17;10.35;;;6.18;;
80404;SDS011;69733;48.744;9.176;2023-04-29T15:11:42;8.13;;;5.03;;
80404;SDS011;69733;48.744;9.176;2023-04-29T15:14:08;8.75;;;5.25;;